Time;durP1;ratioP1;P1;durP2;ratioP2;P2;SDS_P1;SDS_P2;PMS_P1;PMS_P2;Temp;Humidity;BMP_temperature;BMP_pressure;BME280_temperature;BME280_humidity;BME280_pressure;Samples;Min_cycle;Max_cycle;Signal;HPM_P1;HPM_P2
2023/04/10 00:00:00;;;;;;;26.40;22.20;;;11.30;37.40;;;;;;5031997;28;20205;-50
2023/04/10 00:02:25;;;;;;;26.40;20.17;;;11.20;37.50;;;;;;5032191;28;20494;-50
2023/04/10 00:04:51;;;;;;;29.33;22.20;;;11.20;37.40;;;;;;5036047;28;20180;-50
2023/04/10 00:07:17;;;;;;;28.07;20.27;;;11.10;37.20;;;;;;5035914;28;20166;-50
2023/04/10 00:09:43;;;;;;;26.27;20.27;;;11.10;37.30;;;;;;5035990;28;20193;-50
2023/04/10 00:12:10;;;;;;;22.30;19.30;;;11.10;37.20;;;;;;5035918;28;20178;-49
2023/04/10 00:14:36;;;;;;;23.50;19.83;;;11.00;37.10;;;;;;5035922;28;20428;-49
2023/04/10 00:17:01;;;;;;;22.05;19.15;;;11.00;37.20;;;;;;5035983;28;20631;-50
2023/04/10 00:19:27;;;;;;;25.20;20.67;;;10.90;37.40;;;;;;5035808;28;20209;-50
2023/04/10 00:21:54;;;;;;;21.77;17.67;;;10.90;37.60;;;;;;5035384;28;20208;-50
2023/04/10 00:24:20;;;;;;;21.83;18.90;;;10.80;37.50;;;;;;5035637;28;20177;-49
2023/04/10 00:26:45;;;;;;;27.13;18.43;;;10.80;37.70;;;;;;5035960;28;20174;-50
2023/04/10 00:29:11;;;;;;;26.27;20.93;;;10.70;37.80;;;;;;5035508;28;20189;-50
2023/04/10 00:31:37;;;;;;;24.20;19.33;;;10.60;37.90;;;;;;5035544;28;20530;-50
2023/04/10 00:34:03;;;;;;;28.27;21.03;;;10.60;37.80;;;;;;5035435;28;20408;-50
2023/04/10 00:36:30;;;;;;;28.03;20.63;;;10.60;38.60;;;;;;5035478;28;20181;-50
2023/04/10 00:38:56;;;;;;;27.27;20.98;;;10.50;38.10;;;;;;5035621;28;20192;-50
2023/04/10 00:41:22;;;;;;;27.60;21.83;;;10.60;38.00;;;;;;5035313;28;20182;-50
2023/04/10 00:43:48;;;;;;;26.15;20.48;;;10.50;38.00;;;;;;5035119;28;20820;-50
2023/04/10 00:46:14;;;;;;;27.57;20.73;;;10.50;38.00;;;;;;5035524;28;20182;-50
2023/04/10 00:48:40;;;;;;;26.45;21.83;;;10.40;37.90;;;;;;5035431;28;20413;-50
2023/04/10 00:51:06;;;;;;;26.88;19.10;;;10.50;37.90;;;;;;5035168;28;20174;-50
2023/04/10 00:53:32;;;;;;;25.40;20.40;;;10.40;37.90;;;;;;5034893;28;20665;-50
2023/04/10 00:56:00;;;;;;;28.70;20.17;;;10.40;38.00;;;;;;5035093;28;20455;-49
2023/04/10 00:58:26;;;;;;;24.92;19.35;;;10.40;37.90;;;;;;5035126;28;20491;-50
2023/04/10 01:00:52;;;;;;;26.03;18.83;;;10.30;38.00;;;;;;5034978;28;20297;-50
2023/04/10 01:03:19;;;;;;;25.67;21.40;;;10.40;37.90;;;;;;5034616;28;20287;-50
2023/04/10 01:06:19;;;;;;;29.55;21.98;;;10.40;37.90;;;;;;5034946;28;20753;-50
2023/04/10 01:08:56;;;;;;;23.88;20.05;;;10.30;37.80;;;;;;5034874;28;20158;-52
2023/04/10 01:11:52;;;;;;;30.48;23.42;;;10.20;37.70;;;;;;5034942;28;20177;-50
2023/04/10 01:14:35;;;;;;;26.52;21.67;;;10.20;37.80;;;;;;5033713;28;20174;-51
2023/04/10 01:17:10;;;;;;;28.88;20.00;;;10.10;38.00;;;;;;5035069;28;20212;-49
2023/04/10 01:19:59;;;;;;;28.30;21.90;;;10.10;37.90;;;;;;5034466;28;20213;-51
2023/04/10 01:22:35;;;;;;;22.17;19.63;;;10.10;37.80;;;;;;5034613;28;20205;-51
2023/04/10 01:25:38;;;;;;;23.80;18.02;;;10.10;37.80;;;;;;5034596;28;20628;-51
2023/04/10 01:28:10;;;;;;;26.63;21.27;;;10.00;37.90;;;;;;5034572;28;20154;-51
2023/04/10 01:30:36;;;;;;;29.00;22.77;;;9.80;38.10;;;;;;5034338;28;20214;-50
2023/04/10 01:33:07;;;;;;;30.88;22.10;;;9.80;38.30;;;;;;5034428;28;20241;-49
2023/04/10 01:35:35;;;;;;;28.48;21.10;;;9.70;38.40;;;;;;5034494;28;20253;-51
2023/04/10 01:38:02;;;;;;;28.88;22.70;;;9.70;38.60;;;;;;5034444;28;20176;-51
2023/04/10 01:40:30;;;;;;;30.27;22.60;;;9.60;38.90;;;;;;5034221;28;20196;-49
2023/04/10 01:42:57;;;;;;;29.88;23.20;;;9.60;38.60;;;;;;5033928;28;20188;-51
2023/04/10 01:45:26;;;;;;;31.23;23.27;;;9.60;38.50;;;;;;5034407;28;20256;-49
2023/04/10 01:47:54;;;;;;;26.45;20.80;;;9.60;38.40;;;;;;5034133;28;20212;-50
2023/04/10 01:50:24;;;;;;;33.15;24.65;;;9.50;38.60;;;;;;5034201;28;20193;-51
2023/04/10 01:52:51;;;;;;;28.50;21.92;;;9.40;38.50;;;;;;5033902;28;20170;-51
2023/04/10 01:55:19;;;;;;;27.75;22.27;;;9.40;38.40;;;;;;5034006;28;20175;-51
2023/04/10 01:57:47;;;;;;;25.52;21.00;;;9.50;38.60;;;;;;5033929;28;20174;-50
2023/04/10 02:00:16;;;;;;;30.08;22.77;;;9.40;38.60;;;;;;5032842;28;20607;-51
2023/04/10 02:02:42;;;;;;;31.45;21.90;;;9.40;38.60;;;;;;5033643;28;20275;-51
2023/04/10 02:05:12;;;;;;;25.63;19.63;;;9.40;38.80;;;;;;5033841;28;20724;-49
2023/04/10 02:07:59;;;;;;;30.30;21.52;;;9.40;38.90;;;;;;5033886;28;20175;-51
2023/04/10 02:10:39;;;;;;;30.83;21.90;;;9.40;38.70;;;;;;5033651;28;20200;-51
2023/04/10 02:13:08;;;;;;;26.13;20.65;;;9.40;38.60;;;;;;5033664;28;20170;-51
2023/04/10 02:15:35;;;;;;;28.48;20.60;;;9.40;38.50;;;;;;5033584;28;20555;-51
2023/04/10 02:18:05;;;;;;;30.75;20.88;;;9.40;38.50;;;;;;5033707;28;20175;-51
2023/04/10 02:20:32;;;;;;;29.42;22.02;;;9.30;38.80;;;;;;5033294;28;20559;-51
2023/04/10 02:23:02;;;;;;;30.17;20.83;;;9.30;39.00;;;;;;5033260;28;20284;-51
2023/04/10 02:25:31;;;;;;;26.20;21.42;;;9.20;38.90;;;;;;5033316;28;20175;-51
2023/04/10 02:27:57;;;;;;;30.30;21.73;;;9.20;38.70;;;;;;5033734;28;20228;-51
2023/04/10 02:30:23;;;;;;;33.50;21.43;;;9.20;38.60;;;;;;5033318;28;20189;-52
2023/04/10 02:32:49;;;;;;;26.55;21.50;;;9.30;38.50;;;;;;5032971;28;20180;-51
2023/04/10 02:35:15;;;;;;;28.07;21.60;;;9.20;38.50;;;;;;5033464;28;20188;-51
2023/04/10 02:37:41;;;;;;;27.80;20.90;;;9.20;38.60;;;;;;5033282;28;20402;-51
2023/04/10 02:40:08;;;;;;;26.95;19.10;;;9.10;38.70;;;;;;5033013;28;20228;-51
2023/04/10 02:42:34;;;;;;;29.30;21.50;;;9.00;38.60;;;;;;5032889;28;20198;-51
2023/04/10 02:45:00;;;;;;;24.65;20.60;;;9.00;38.60;;;;;;5033207;28;20165;-51
2023/04/10 02:47:26;;;;;;;25.60;21.03;;;9.00;38.70;;;;;;5032964;28;20171;-51
2023/04/10 02:49:51;;;;;;;25.70;20.73;;;9.00;38.70;;;;;;5032966;28;20200;-51
2023/04/10 02:52:17;;;;;;;25.23;20.43;;;9.00;38.60;;;;;;5032909;28;20647;-51
2023/04/10 02:54:43;;;;;;;25.50;19.07;;;9.00;38.60;;;;;;5032921;28;20208;-51
2023/04/10 02:57:09;;;;;;;26.07;19.93;;;9.00;38.60;;;;;;5032935;28;20444;-48
2023/04/10 02:59:34;;;;;;;26.47;22.27;;;9.00;38.60;;;;;;5032765;28;20559;-51
2023/04/10 03:02:00;;;;;;;27.00;20.37;;;9.00;38.60;;;;;;5032404;28;20629;-50
2023/04/10 03:04:27;;;;;;;27.43;19.50;;;9.00;38.70;;;;;;5032753;28;20190;-51
2023/04/10 03:06:53;;;;;;;28.35;19.25;;;9.00;39.00;;;;;;5032718;28;20178;-51
2023/04/10 03:09:19;;;;;;;25.33;19.90;;;9.00;38.90;;;;;;5032594;28;20184;-51
2023/04/10 03:11:44;;;;;;;28.13;22.03;;;9.00;39.00;;;;;;5032465;28;20759;-51
2023/04/10 03:14:10;;;;;;;28.00;21.37;;;9.00;39.10;;;;;;5032564;28;20191;-51
2023/04/10 03:16:36;;;;;;;27.63;20.63;;;9.00;39.90;;;;;;5032528;28;20249;-51
2023/04/10 03:19:02;;;;;;;25.63;21.73;;;9.00;39.50;;;;;;5032245;28;20203;-51
2023/04/10 03:21:27;;;;;;;29.80;22.77;;;9.00;39.60;;;;;;5032623;28;20343;-51
2023/04/10 03:23:53;;;;;;;27.33;21.17;;;9.00;39.50;;;;;;5032177;28;20776;-51
2023/04/10 03:26:19;;;;;;;26.20;19.73;;;9.10;39.50;;;;;;5032397;28;20172;-51
2023/04/10 03:28:45;;;;;;;30.15;20.70;;;9.10;39.60;;;;;;5032319;28;20162;-51
2023/04/10 03:31:11;;;;;;;30.63;22.23;;;9.10;39.50;;;;;;5032229;28;20177;-51
2023/04/10 03:33:37;;;;;;;27.43;21.40;;;9.00;39.20;;;;;;5032276;28;20527;-51
2023/04/10 03:36:03;;;;;;;27.40;20.33;;;9.10;39.50;;;;;;5032298;28;20197;-51
2023/04/10 03:38:29;;;;;;;29.35;21.33;;;9.10;39.40;;;;;;5031502;28;20174;-51
2023/04/10 03:40:55;;;;;;;33.07;23.43;;;9.10;39.70;;;;;;5032119;28;20203;-51
2023/04/10 03:43:21;;;;;;;29.40;21.70;;;9.10;40.20;;;;;;5031940;28;20224;-51
2023/04/10 03:45:46;;;;;;;28.20;22.00;;;9.10;40.10;;;;;;5032104;28;20845;-51
2023/04/10 03:48:12;;;;;;;27.20;19.77;;;9.20;40.20;;;;;;5032294;28;20786;-51
2023/04/10 03:50:38;;;;;;;28.20;20.37;;;9.20;40.40;;;;;;5031942;28;20220;-51
2023/04/10 03:53:04;;;;;;;29.33;20.97;;;9.20;40.30;;;;;;5032033;28;20225;-51
2023/04/10 03:55:30;;;;;;;32.07;21.60;;;9.30;40.30;;;;;;5032063;28;20409;-51
2023/04/10 03:57:55;;;;;;;30.13;20.70;;;9.30;40.40;;;;;;5032017;28;20642;-51
2023/04/10 04:00:21;;;;;;;24.40;19.63;;;9.30;40.40;;;;;;5031892;28;20570;-51
2023/04/10 04:02:49;;;;;;;32.13;21.67;;;9.40;40.20;;;;;;5032087;28;20278;-51
2023/04/10 04:05:15;;;;;;;23.90;19.40;;;9.40;40.20;;;;;;5031935;28;20166;-51
2023/04/10 04:07:41;;;;;;;26.77;20.73;;;9.40;39.90;;;;;;5031867;28;20174;-51
2023/04/10 04:10:07;;;;;;;25.67;21.57;;;9.40;40.00;;;;;;5032176;28;20193;-51
2023/04/10 04:12:33;;;;;;;29.20;20.70;;;9.40;40.00;;;;;;5031644;28;20601;-51
2023/04/10 04:14:58;;;;;;;25.60;21.10;;;9.40;40.10;;;;;;5031785;28;20174;-51
2023/04/10 04:17:24;;;;;;;27.97;21.30;;;9.40;40.00;;;;;;5031974;28;20178;-51
2023/04/10 04:19:50;;;;;;;27.60;20.00;;;9.40;39.80;;;;;;5031678;28;20206;-51
2023/04/10 04:22:15;;;;;;;30.00;21.97;;;9.30;39.90;;;;;;5031471;28;20196;-51
2023/04/10 04:24:41;;;;;;;28.97;21.00;;;9.30;39.80;;;;;;5031756;28;20171;-51
2023/04/10 04:27:07;;;;;;;20.97;17.43;;;9.30;39.80;;;;;;5031831;28;20405;-51
2023/04/10 04:29:33;;;;;;;27.00;20.93;;;9.30;39.90;;;;;;5031819;28;20225;-51
2023/04/10 04:31:58;;;;;;;28.83;21.70;;;9.30;40.00;;;;;;5031743;28;20209;-51
2023/04/10 04:34:24;;;;;;;28.43;20.30;;;9.30;39.90;;;;;;5031724;28;20175;-51
2023/04/10 04:36:50;;;;;;;35.73;21.60;;;9.20;39.90;;;;;;5031626;28;20191;-51
2023/04/10 04:39:16;;;;;;;30.30;22.40;;;9.20;39.70;;;;;;5031439;28;20430;-51
2023/04/10 04:41:41;;;;;;;24.87;20.03;;;9.20;39.60;;;;;;5031527;28;20513;-51
2023/04/10 04:44:08;;;;;;;30.23;21.47;;;9.20;39.50;;;;;;5031356;28;20249;-51
2023/04/10 04:46:34;;;;;;;27.80;20.90;;;9.30;39.70;;;;;;5031615;28;20893;-51
2023/04/10 04:49:00;;;;;;;29.80;23.07;;;9.30;39.90;;;;;;5032826;28;20273;-51
2023/04/10 04:51:26;;;;;;;24.65;20.08;;;9.30;39.80;;;;;;5035196;28;20254;-51
2023/04/10 04:53:52;;;;;;;24.80;19.23;;;9.30;39.70;;;;;;5034982;28;20268;-51
2023/04/10 04:56:17;;;;;;;29.10;20.35;;;9.30;39.70;;;;;;5035212;28;20430;-51
2023/04/10 04:58:43;;;;;;;27.27;21.50;;;9.30;40.00;;;;;;5034930;28;20695;-51
2023/04/10 05:01:09;;;;;;;28.23;19.43;;;9.30;39.80;;;;;;5035072;28;20176;-51
2023/04/10 05:03:35;;;;;;;31.17;22.10;;;9.30;39.80;;;;;;5034776;28;20200;-51
2023/04/10 05:06:00;;;;;;;25.50;21.10;;;9.40;39.70;;;;;;5034914;28;20198;-51
2023/04/10 05:08:26;;;;;;;30.07;21.07;;;9.40;39.80;;;;;;5034954;28;20407;-51
2023/04/10 05:10:52;;;;;;;29.50;21.70;;;9.40;40.10;;;;;;5034833;28;20644;-51
2023/04/10 05:13:18;;;;;;;25.27;20.97;;;9.40;40.10;;;;;;5034703;28;20664;-51
2023/04/10 05:15:44;;;;;;;24.87;20.50;;;9.50;40.30;;;;;;5034823;28;20173;-51
2023/04/10 05:18:10;;;;;;;27.27;21.85;;;9.50;40.30;;;;;;5034768;28;20229;-51
2023/04/10 05:20:36;;;;;;;28.77;21.60;;;9.60;40.30;;;;;;5034584;28;20212;-51
2023/04/10 05:23:03;;;;;;;28.70;20.98;;;9.60;40.90;;;;;;5034387;28;20244;-51
2023/04/10 05:25:29;;;;;;;27.40;21.38;;;9.70;40.20;;;;;;5034596;28;20569;-51
2023/04/10 05:27:55;;;;;;;28.08;21.42;;;9.70;40.20;;;;;;5034474;28;20175;-51
2023/04/10 05:30:21;;;;;;;27.75;19.83;;;9.80;40.20;;;;;;5034743;28;20202;-50
2023/04/10 05:32:46;;;;;;;26.53;18.40;;;9.80;40.30;;;;;;5034349;28;20637;-51
2023/04/10 05:35:12;;;;;;;25.97;19.90;;;9.80;40.20;;;;;;5034392;28;20228;-51
2023/04/10 05:37:38;;;;;;;24.83;19.33;;;9.90;40.40;;;;;;5034376;28;20186;-51
2023/04/10 05:40:04;;;;;;;26.50;19.20;;;9.90;40.40;;;;;;5034263;28;20203;-51
2023/04/10 05:42:30;;;;;;;25.60;19.98;;;10.00;40.40;;;;;;5033921;28;20276;-51
2023/04/10 05:44:56;;;;;;;29.37;20.07;;;10.10;40.40;;;;;;5034458;28;20214;-51
2023/04/10 05:47:21;;;;;;;27.97;21.20;;;10.20;40.70;;;;;;5034500;28;20580;-51
2023/04/10 05:49:47;;;;;;;24.20;18.97;;;10.30;40.90;;;;;;5034411;28;20677;-51
2023/04/10 05:52:13;;;;;;;27.50;20.17;;;10.40;40.90;;;;;;5033865;28;20638;-51
2023/04/10 05:54:38;;;;;;;26.80;19.70;;;10.60;41.00;;;;;;5034195;28;20223;-51
2023/04/10 05:57:04;;;;;;;27.57;19.97;;;10.70;40.80;;;;;;5033892;28;20168;-51
2023/04/10 05:59:30;;;;;;;32.97;21.37;;;10.70;40.70;;;;;;5033922;28;20193;-51
2023/04/10 06:01:56;;;;;;;28.27;19.40;;;10.80;40.70;;;;;;5033158;28;20169;-51
2023/04/10 06:04:22;;;;;;;27.80;20.23;;;10.90;40.80;;;;;;5033716;28;20209;-51
2023/04/10 06:06:48;;;;;;;26.77;21.13;;;11.00;40.80;;;;;;5033830;28;20240;-51
2023/04/10 06:09:14;;;;;;;24.20;20.47;;;11.10;41.20;;;;;;5033667;28;20490;-52
2023/04/10 06:11:40;;;;;;;27.23;22.33;;;11.30;40.80;;;;;;5033875;28;20401;-51
2023/04/10 06:14:06;;;;;;;26.40;19.50;;;11.30;40.80;;;;;;5033543;28;20776;-51
2023/04/10 06:16:31;;;;;;;28.70;20.67;;;11.40;40.70;;;;;;5033682;28;20205;-51
2023/04/10 06:18:57;;;;;;;27.97;19.90;;;11.50;40.70;;;;;;5033330;28;20772;-51
2023/04/10 06:21:23;;;;;;;30.57;21.53;;;11.60;40.60;;;;;;5033553;28;20184;-51
2023/04/10 06:23:49;;;;;;;29.47;21.07;;;11.70;40.40;;;;;;5033201;28;20209;-51
2023/04/10 06:26:16;;;;;;;28.17;20.00;;;11.90;40.40;;;;;;5033668;28;20534;-51
2023/04/10 06:28:42;;;;;;;30.17;20.17;;;12.00;40.50;;;;;;5033532;28;20311;-51
2023/04/10 06:31:07;;;;;;;25.45;19.20;;;12.00;40.30;;;;;;5033641;28;20219;-51
2023/04/10 06:33:36;;;;;;;25.93;19.30;;;12.20;40.40;;;;;;5033284;28;20657;-51
2023/04/10 06:36:02;;;;;;;30.75;19.88;;;12.30;40.30;;;;;;5033306;28;20173;-49
2023/04/10 06:38:29;;;;;;;24.45;19.35;;;12.40;39.80;;;;;;5033500;28;20184;-51
2023/04/10 06:40:54;;;;;;;24.20;19.75;;;12.50;40.80;;;;;;5033055;28;20198;-52
2023/04/10 06:43:20;;;;;;;24.00;19.13;;;12.60;39.90;;;;;;5032910;28;20228;-51
2023/04/10 06:45:46;;;;;;;24.37;17.77;;;12.80;40.00;;;;;;5033139;28;20249;-51
2023/04/10 06:48:12;;;;;;;21.17;16.90;;;12.90;39.70;;;;;;5033249;28;20280;-51
2023/04/10 06:50:38;;;;;;;23.63;17.80;;;13.00;39.40;;;;;;5032940;28;20702;-51
2023/04/10 06:53:04;;;;;;;24.77;19.90;;;13.10;39.10;;;;;;5032731;28;20487;-51
2023/04/10 06:55:30;;;;;;;21.70;15.80;;;13.20;38.50;;;;;;5032814;28;20440;-51
2023/04/10 06:57:55;;;;;;;20.90;17.90;;;13.20;38.60;;;;;;5033074;28;20409;-52
2023/04/10 07:00:22;;;;;;;22.23;18.20;;;13.20;38.30;;;;;;5032734;28;20824;-49
2023/04/10 07:02:48;;;;;;;21.27;17.77;;;13.30;38.60;;;;;;5032438;28;20456;-51
2023/04/10 07:05:14;;;;;;;24.38;18.35;;;13.30;38.70;;;;;;5032695;28;20637;-49
2023/04/10 07:07:41;;;;;;;22.02;17.35;;;13.50;38.70;;;;;;5032652;28;20257;-52
2023/04/10 07:10:07;;;;;;;23.52;18.10;;;13.60;38.30;;;;;;5032481;28;20189;-51
2023/04/10 07:12:33;;;;;;;25.60;18.92;;;13.70;38.40;;;;;;5031444;28;20232;-52
2023/04/10 07:14:59;;;;;;;22.45;18.80;;;13.80;38.40;;;;;;5032517;28;20243;-49
2023/04/10 07:17:25;;;;;;;21.97;17.07;;;14.00;37.80;;;;;;5032705;28;20174;-52
2023/04/10 07:19:50;;;;;;;24.70;20.13;;;14.00;37.40;;;;;;5032362;28;20289;-52
2023/04/10 07:22:16;;;;;;;24.37;18.07;;;14.10;37.70;;;;;;5032102;28;20966;-49
2023/04/10 07:24:43;;;;;;;22.50;18.50;;;14.30;37.70;;;;;;5032280;28;20223;-52
2023/04/10 07:27:08;;;;;;;23.73;19.45;;;14.50;37.20;;;;;;5032711;28;20178;-52
2023/04/10 07:29:34;;;;;;;20.43;18.23;;;14.60;37.10;;;;;;5032106;28;20255;-52
2023/04/10 07:32:00;;;;;;;25.23;17.73;;;14.70;36.90;;;;;;5032150;28;20419;-51
2023/04/10 07:34:26;;;;;;;20.63;17.27;;;14.80;36.70;;;;;;5032529;28;20492;-51
2023/04/10 07:36:52;;;;;;;22.73;17.47;;;15.00;36.90;;;;;;5032277;28;20396;-49
2023/04/10 07:39:17;;;;;;;23.53;18.73;;;15.10;36.80;;;;;;5032130;28;20316;-51
2023/04/10 07:41:43;;;;;;;22.67;17.73;;;15.30;37.10;;;;;;5032334;28;20668;-51
2023/04/10 07:44:10;;;;;;;26.80;19.37;;;15.50;36.40;;;;;;5032056;28;20189;-52
2023/04/10 07:46:36;;;;;;;24.40;19.77;;;15.60;35.40;;;;;;5032093;28;20408;-49
2023/04/10 07:49:02;;;;;;;21.23;18.40;;;15.70;35.90;;;;;;5031922;28;20739;-51
2023/04/10 07:51:28;;;;;;;21.83;17.73;;;15.80;35.70;;;;;;5032076;28;20773;-52
2023/04/10 07:53:54;;;;;;;23.53;18.10;;;16.00;35.30;;;;;;5031873;28;20256;-49
2023/04/10 07:56:21;;;;;;;24.08;18.40;;;16.10;35.10;;;;;;5032200;28;20188;-52
2023/04/10 07:58:48;;;;;;;21.60;17.40;;;16.30;35.60;;;;;;5032129;28;20236;-51
2023/04/10 08:01:14;;;;;;;24.33;18.58;;;16.40;34.80;;;;;;5032073;28;20182;-51
2023/04/10 08:03:42;;;;;;;21.25;16.80;;;16.40;34.20;;;;;;5031524;28;20202;-51
2023/04/10 08:06:09;;;;;;;20.90;17.70;;;16.60;34.00;;;;;;5031916;28;20201;-51
2023/04/10 08:08:38;;;;;;;21.40;17.35;;;16.80;34.80;;;;;;5032103;28;20202;-51
2023/04/10 08:11:22;;;;;;;21.33;17.17;;;17.00;33.70;;;;;;5045627;22;20221;-54
2023/04/10 08:13:48;;;;;;;21.55;15.70;;;17.20;33.40;;;;;;5023532;28;20188;-51
2023/04/10 08:16:14;;;;;;;25.20;18.45;;;17.40;32.20;;;;;;5031825;28;20181;-54
2023/04/10 08:18:40;;;;;;;20.97;17.13;;;17.50;32.40;;;;;;5031752;28;20556;-52
2023/04/10 08:21:06;;;;;;;20.60;16.83;;;17.60;31.60;;;;;;5031870;28;20421;-52
2023/04/10 08:23:31;;;;;;;20.37;17.10;;;17.80;32.50;;;;;;5032054;28;20488;-54
2023/04/10 08:25:57;;;;;;;23.07;16.03;;;18.00;32.90;;;;;;5035776;28;20402;-52
2023/04/10 08:28:23;;;;;;;18.80;16.53;;;18.10;31.90;;;;;;5035887;28;20200;-52
2023/04/10 08:30:49;;;;;;;20.90;17.70;;;18.30;32.40;;;;;;5035507;28;20198;-54
2023/04/10 08:33:14;;;;;;;20.30;17.20;;;18.50;32.70;;;;;;5035209;28;20414;-52
2023/04/10 08:35:40;;;;;;;21.03;17.20;;;18.60;31.30;;;;;;5035581;28;20775;-52
2023/04/10 08:38:06;;;;;;;17.47;14.03;;;18.70;30.80;;;;;;5035673;28;20177;-54
2023/04/10 08:40:36;;;;;;;18.33;15.87;;;18.80;31.30;;;;;;5035347;28;20190;-54
2023/04/10 08:43:02;;;;;;;17.90;16.00;;;18.90;30.90;;;;;;5035131;28;20186;-52
2023/04/10 08:45:27;;;;;;;18.60;15.40;;;19.00;31.40;;;;;;5035333;28;20170;-51
2023/04/10 08:48:00;;;;;;;16.53;14.43;;;19.20;31.00;;;;;;5035228;28;20189;-54
2023/04/10 08:50:30;;;;;;;20.95;15.38;;;19.30;30.50;;;;;;5035213;28;20261;-51
2023/04/10 08:52:59;;;;;;;24.48;18.90;;;19.40;29.90;;;;;;5035089;28;20174;-54
2023/04/10 08:55:25;;;;;;;21.45;16.42;;;19.40;31.20;;;;;;5035162;28;20552;-55
2023/04/10 08:57:52;;;;;;;22.20;16.35;;;19.60;31.10;;;;;;5035139;28;20653;-53
2023/04/10 09:00:18;;;;;;;22.95;16.20;;;19.80;31.50;;;;;;5034841;28;20630;-53
2023/04/10 09:02:44;;;;;;;20.92;15.75;;;20.00;30.90;;;;;;5034660;28;20202;-53
2023/04/10 09:05:12;;;;;;;18.20;14.43;;;20.10;30.30;;;;;;5035281;28;20181;-54
2023/04/10 09:07:38;;;;;;;18.55;16.13;;;20.30;30.80;;;;;;5034979;28;20162;-56
2023/04/10 09:10:05;;;;;;;21.17;17.83;;;20.40;29.10;;;;;;5034963;28;20220;-53
2023/04/10 09:12:45;;;;;;;20.95;15.38;;;20.40;29.60;;;;;;5034643;28;20239;-54
2023/04/10 09:15:11;;;;;;;17.83;13.82;;;20.50;30.10;;;;;;5034817;28;20248;-54
2023/04/10 09:17:37;;;;;;;20.30;16.33;;;20.60;30.00;;;;;;5034731;28;20653;-54
2023/04/10 09:20:20;;;;;;;22.33;16.93;;;20.70;30.30;;;;;;5034754;28;20470;-54
2023/04/10 09:22:46;;;;;;;19.98;14.70;;;20.90;26.80;;;;;;5034508;28;20281;-53
2023/04/10 09:25:32;;;;;;;17.63;15.53;;;20.90;28.20;;;;;;5034808;28;20708;-55
2023/04/10 09:28:06;;;;;;;18.85;14.43;;;20.90;27.70;;;;;;5034825;28;20158;-57
2023/04/10 09:30:38;;;;;;;15.85;12.30;;;21.00;28.70;;;;;;5034366;28;20198;-53
2023/04/10 09:33:26;;;;;;;16.15;12.98;;;21.20;28.40;;;;;;5034543;28;20177;-53
2023/04/10 09:35:52;;;;;;;13.55;11.80;;;21.40;29.00;;;;;;5033370;28;20895;-53
2023/04/10 09:38:20;;;;;;;15.05;13.45;;;21.50;26.80;;;;;;5034311;28;20576;-53
2023/04/10 09:40:47;;;;;;;16.70;14.10;;;21.50;26.30;;;;;;5034560;28;20280;-53
2023/04/10 09:43:26;;;;;;;15.65;12.55;;;21.50;26.40;;;;;;5033861;28;20193;-53
2023/04/10 09:45:56;;;;;;;14.98;11.80;;;21.60;27.10;;;;;;5034281;28;20264;-54
2023/04/10 09:48:23;;;;;;;13.40;11.18;;;21.60;26.60;;;;;;5034375;28;20261;-53
2023/04/10 09:50:50;;;;;;;12.57;10.65;;;21.70;25.40;;;;;;5034089;28;20194;-53
2023/04/10 09:53:18;;;;;;;13.10;11.68;;;21.80;26.50;;;;;;5033855;28;20536;-55
2023/04/10 09:55:45;;;;;;;9.10;7.70;;;21.90;25.00;;;;;;5034192;28;20206;-53
2023/04/10 09:58:12;;;;;;;8.35;7.45;;;21.60;22.30;;;;;;5034013;28;20182;-51
2023/04/10 10:00:42;;;;;;;11.20;10.02;;;21.30;22.30;;;;;;5034058;28;20281;-55
2023/04/10 10:03:13;;;;;;;12.90;9.48;;;21.20;23.30;;;;;;5033702;28;20649;-53
2023/04/10 10:05:42;;;;;;;12.35;10.30;;;21.20;25.70;;;;;;5034228;28;20166;-54
2023/04/10 10:08:10;;;;;;;13.13;11.68;;;21.40;25.70;;;;;;5033798;28;20657;-56
2023/04/10 10:10:39;;;;;;;10.02;9.00;;;21.40;23.90;;;;;;5033635;28;20616;-56
2023/04/10 10:13:07;;;;;;;9.80;8.80;;;21.40;23.80;;;;;;5033409;28;20188;-54
2023/04/10 10:16:10;;;;;;;11.48;9.18;;;21.30;23.30;;;;;;5033832;28;20304;-54
2023/04/10 10:18:52;;;;;;;12.00;9.98;;;21.20;23.40;;;;;;5033566;28;20169;-53
2023/04/10 10:21:19;;;;;;;12.48;10.10;;;21.30;24.40;;;;;;5033518;28;20210;-56
2023/04/10 10:23:47;;;;;;;11.18;10.02;;;21.50;25.20;;;;;;5033434;28;20202;-53
2023/04/10 10:26:14;;;;;;;12.25;10.70;;;21.90;26.60;;;;;;5033705;28;20184;-53
2023/04/10 10:28:41;;;;;;;12.38;11.10;;;22.20;23.60;;;;;;5033362;28;20637;-55
2023/04/10 10:31:06;;;;;;;16.03;13.37;;;22.30;24.20;;;;;;5033257;28;20205;-53
2023/04/10 10:33:35;;;;;;;18.87;14.73;;;22.50;24.40;;;;;;5033035;28;20492;-53
2023/04/10 10:36:03;;;;;;;14.80;11.65;;;22.60;23.50;;;;;;5033260;28;20439;-52
2023/04/10 10:38:30;;;;;;;12.13;10.35;;;22.30;23.20;;;;;;5033448;28;20186;-54
2023/04/10 10:41:17;;;;;;;14.82;11.60;;;22.10;23.20;;;;;;5033246;28;20277;-52
2023/04/10 10:44:15;;;;;;;13.88;12.48;;;21.80;23.00;;;;;;5032804;28;20233;-52
2023/04/10 10:46:51;;;;;;;12.68;10.55;;;21.80;24.90;;;;;;5032188;28;20186;-54
2023/04/10 10:49:16;;;;;;;12.48;10.60;;;21.50;24.00;;;;;;5032968;28;20645;-54
2023/04/10 10:51:50;;;;;;;12.43;11.03;;;21.40;24.70;;;;;;5032768;28;20209;-54
2023/04/10 10:54:34;;;;;;;12.35;9.82;;;21.70;25.30;;;;;;5033000;28;20253;-54
2023/04/10 10:57:01;;;;;;;12.25;11.05;;;21.90;24.60;;;;;;5033068;28;20202;-54
2023/04/10 10:59:57;;;;;;;12.35;10.57;;;22.00;25.20;;;;;;5032809;28;20178;-54
2023/04/10 11:02:22;;;;;;;12.10;10.80;;;22.30;25.80;;;;;;5015357;28;20229;-54
2023/04/10 11:04:48;;;;;;;13.20;10.40;;;22.50;23.60;;;;;;5032995;28;20405;-54
2023/04/10 11:07:16;;;;;;;10.60;9.50;;;22.20;23.60;;;;;;5032821;28;20415;-54
2023/04/10 11:09:51;;;;;;;12.68;11.43;;;22.00;23.30;;;;;;5032702;28;20518;-54
2023/04/10 11:12:20;;;;;;;11.45;10.30;;;22.10;24.00;;;;;;5032165;28;20217;-54
2023/04/10 11:14:59;;;;;;;10.20;9.13;;;22.30;25.20;;;;;;5032858;28;20695;-54
2023/04/10 11:17:47;;;;;;;11.27;10.07;;;22.40;24.40;;;;;;5032546;28;20177;-54
2023/04/10 11:20:13;;;;;;;11.20;10.00;;;22.50;23.30;;;;;;5032662;28;20174;-54
2023/04/10 11:23:09;;;;;;;12.00;10.80;;;22.40;23.10;;;;;;5032293;28;20470;-54
2023/04/10 11:25:52;;;;;;;10.15;8.38;;;22.50;22.30;;;;;;5032640;28;20192;-54
2023/04/10 11:28:47;;;;;;;10.40;9.40;;;22.70;24.30;;;;;;5032219;28;20174;-55
2023/04/10 11:31:22;;;;;;;9.15;8.05;;;22.80;22.80;;;;;;5015369;28;20237;-54
2023/04/10 11:33:56;;;;;;;10.27;9.00;;;23.00;24.30;;;;;;5032039;28;20169;-54
2023/04/10 11:36:22;;;;;;;9.73;8.70;;;23.10;21.40;;;;;;5031288;28;20768;-54
2023/04/10 11:38:59;;;;;;;10.63;9.47;;;23.20;23.00;;;;;;5032166;28;20412;-54
2023/04/10 11:41:32;;;;;;;11.37;10.27;;;23.10;20.30;;;;;;5032028;28;20432;-54
2023/04/10 11:43:59;;;;;;;12.80;9.87;;;23.00;21.60;;;;;;5031837;28;20993;-55
2023/04/10 11:46:26;;;;;;;11.20;9.97;;;22.80;21.10;;;;;;5032155;28;20773;-55
2023/04/10 11:49:00;;;;;;;12.80;11.17;;;22.60;22.30;;;;;;5032370;28;20409;-55
2023/04/10 11:51:27;;;;;;;13.87;12.10;;;22.70;22.00;;;;;;5032177;28;20425;-55
2023/04/10 11:54:09;;;;;;;12.45;10.32;;;22.90;22.40;;;;;;5032020;28;20411;-56
2023/04/10 11:56:36;;;;;;;11.80;10.33;;;22.70;19.40;;;;;;5032120;28;20213;-56
2023/04/10 11:59:06;;;;;;;14.67;13.27;;;22.40;21.20;;;;;;5031737;28;20413;-56
2023/04/10 12:01:32;;;;;;;14.00;12.20;;;22.60;21.50;;;;;;5031773;28;20421;-55
2023/04/10 12:03:58;;;;;;;12.50;11.17;;;22.90;21.80;;;;;;5031790;28;20448;-56
2023/04/10 12:06:24;;;;;;;13.73;12.33;;;23.00;21.70;;;;;;5031899;28;20484;-56
2023/04/10 12:08:50;;;;;;;13.53;12.07;;;23.10;21.60;;;;;;5032174;28;20462;-56
2023/04/10 12:11:19;;;;;;;13.43;11.67;;;23.10;19.80;;;;;;5031696;28;20448;-54
2023/04/10 12:13:45;;;;;;;13.77;11.23;;;23.00;21.60;;;;;;5031873;28;20412;-54
2023/04/10 12:16:11;;;;;;;13.80;11.97;;;23.10;21.50;;;;;;5031998;28;20416;-54
2023/04/10 12:18:37;;;;;;;13.67;10.57;;;23.20;20.40;;;;;;5032002;28;20765;-54
2023/04/10 12:21:04;;;;;;;13.77;12.37;;;23.10;20.40;;;;;;5031886;28;20600;-53
2023/04/10 12:23:30;;;;;;;13.70;10.80;;;22.80;19.80;;;;;;5031520;28;20459;-55
2023/04/10 12:26:16;;;;;;;11.60;10.20;;;22.80;20.10;;;;;;5031834;28;20405;-55
2023/04/10 12:28:51;;;;;;;10.23;9.00;;;23.00;19.90;;;;;;5032014;28;20155;-55
2023/04/10 12:31:17;;;;;;;10.33;9.10;;;22.90;19.20;;;;;;5031544;28;20416;-55
2023/04/10 12:33:46;;;;;;;16.50;11.10;;;23.00;17.90;;;;;;5031567;28;20404;-55
2023/04/10 12:36:22;;;;;;;12.60;10.20;;;22.80;18.40;;;;;;5031692;28;20437;-54